Time;durP1;ratioP1;P1;durP2;ratioP2;P2;SDS_P1;SDS_P2;PMS_P1;PMS_P2;Temp;Humidity;BMP_temperature;BMP_pressure;BME280_temperature;BME280_humidity;BME280_pressure;Samples;Min_cycle;Max_cycle;Signal;HPM_P1;HPM_P2
2021/06/06 00:01:10;;;;;;;8.47;7.67;;;17.60;99.90;;;;;;4993431;28;20230;-59
2021/06/06 00:03:40;;;;;;;9.13;8.27;;;17.40;99.90;;;;;;4993529;28;20191;-59
2021/06/06 00:06:21;;;;;;;8.45;7.65;;;17.30;99.90;;;;;;4994560;28;20230;-59
2021/06/06 00:08:48;;;;;;;8.48;7.65;;;17.30;99.90;;;;;;4993292;28;20189;-59
2021/06/06 00:11:20;;;;;;;9.82;8.68;;;17.40;99.90;;;;;;4993288;28;20184;-60
2021/06/06 00:13:47;;;;;;;9.32;8.35;;;17.50;99.90;;;;;;4993793;28;20266;-60
2021/06/06 00:16:28;;;;;;;9.30;8.50;;;17.40;99.90;;;;;;4992957;28;20218;-60
2021/06/06 00:18:54;;;;;;;8.23;6.72;;;17.40;99.90;;;;;;4993031;28;20669;-59
2021/06/06 00:21:20;;;;;;;9.52;8.63;;;17.20;99.90;;;;;;4993032;28;20561;-60
2021/06/06 00:23:46;;;;;;;8.25;7.38;;;17.30;99.90;;;;;;4993109;28;20180;-60
2021/06/06 00:26:12;;;;;;;7.63;6.87;;;17.50;99.90;;;;;;4992873;28;20767;-59
2021/06/06 00:28:37;;;;;;;7.87;6.67;;;17.40;99.90;;;;;;4992737;28;20438;-59
2021/06/06 00:31:08;;;;;;;7.37;6.73;;;17.40;99.90;;;;;;4993062;28;20665;-59
2021/06/06 00:33:35;;;;;;;8.30;7.15;;;17.30;99.90;;;;;;4992803;28;20425;-60
2021/06/06 00:36:01;;;;;;;7.78;6.97;;;17.20;99.90;;;;;;4992600;28;20215;-60
2021/06/06 00:38:27;;;;;;;9.05;7.25;;;17.20;99.90;;;;;;4992803;28;20660;-59
2021/06/06 00:40:55;;;;;;;7.90;7.10;;;17.20;99.90;;;;;;4992856;28;20282;-60
2021/06/06 00:43:20;;;;;;;9.60;8.63;;;17.00;99.90;;;;;;4992750;28;20599;-60
2021/06/06 00:45:46;;;;;;;8.37;7.57;;;17.00;99.90;;;;;;4992572;28;20214;-60
2021/06/06 00:48:13;;;;;;;7.70;7.00;;;17.10;99.90;;;;;;4995552;28;20187;-59
2021/06/06 00:50:48;;;;;;;9.38;7.55;;;16.90;99.90;;;;;;4992360;28;20219;-58
2021/06/06 00:53:20;;;;;;;7.40;6.68;;;17.00;99.90;;;;;;4992745;28;20285;-59
2021/06/06 00:55:46;;;;;;;7.63;6.60;;;17.10;99.90;;;;;;4991159;28;20207;-59
2021/06/06 00:58:14;;;;;;;7.80;7.10;;;17.30;99.90;;;;;;4993744;28;20184;-60
2021/06/06 01:00:49;;;;;;;8.05;6.65;;;17.30;99.90;;;;;;4992189;28;20522;-61
2021/06/06 01:03:16;;;;;;;7.03;6.40;;;17.20;99.90;;;;;;4992476;28;20261;-60
2021/06/06 01:06:04;;;;;;;6.35;5.75;;;17.10;99.90;;;;;;5001780;28;20214;-59
2021/06/06 01:08:32;;;;;;;7.88;7.13;;;17.20;99.90;;;;;;4992265;28;20665;-60
2021/06/06 01:11:10;;;;;;;6.43;5.82;;;17.20;99.90;;;;;;4993290;28;20183;-59
2021/06/06 01:13:42;;;;;;;6.75;6.15;;;17.20;99.90;;;;;;4989011;28;20828;-59
2021/06/06 01:16:14;;;;;;;6.55;5.60;;;17.20;99.90;;;;;;4992043;28;20203;-60
2021/06/06 01:18:45;;;;;;;6.82;6.10;;;17.00;99.90;;;;;;4991989;28;20183;-60
2021/06/06 01:21:32;;;;;;;6.50;5.88;;;17.10;99.90;;;;;;4993381;28;20184;-60
2021/06/06 01:24:05;;;;;;;6.30;5.80;;;17.20;99.90;;;;;;4989095;28;20181;-60
2021/06/06 01:26:44;;;;;;;7.20;6.50;;;17.20;99.90;;;;;;4991936;28;20711;-60
2021/06/06 01:29:34;;;;;;;6.80;6.20;;;17.40;99.90;;;;;;4991756;28;20195;-60
2021/06/06 01:32:15;;;;;;;6.50;5.80;;;17.20;99.90;;;;;;4991724;28;20198;-60
2021/06/06 01:34:43;;;;;;;5.63;5.15;;;17.20;99.90;;;;;;4991809;28;20202;-60
2021/06/06 01:37:14;;;;;;;5.90;5.40;;;17.20;99.90;;;;;;4991336;28;20221;-60
2021/06/06 01:39:46;;;;;;;7.18;6.35;;;17.20;99.90;;;;;;5001540;28;20179;-60
2021/06/06 01:42:27;;;;;;;6.45;5.85;;;17.30;99.90;;;;;;4991729;28;20683;-60
2021/06/06 01:44:57;;;;;;;7.55;5.95;;;17.40;99.90;;;;;;4991354;28;20653;-60
2021/06/06 01:47:27;;;;;;;6.10;5.50;;;17.40;99.90;;;;;;4991605;28;20222;-60
2021/06/06 01:50:18;;;;;;;6.40;5.80;;;17.20;99.90;;;;;;4991518;28;20218;-60
2021/06/06 01:52:44;;;;;;;5.88;5.38;;;17.20;99.90;;;;;;4988863;28;20265;-60
2021/06/06 01:55:14;;;;;;;5.78;5.28;;;17.00;99.90;;;;;;4991165;28;20274;-61
2021/06/06 01:57:41;;;;;;;6.20;5.60;;;16.90;99.90;;;;;;4990914;28;20486;-60
2021/06/06 02:00:36;;;;;;;5.78;5.20;;;17.20;99.90;;;;;;4991047;28;20665;-60
2021/06/06 02:03:02;;;;;;;6.10;5.50;;;17.20;99.90;;;;;;4991370;28;20201;-60
2021/06/06 02:05:29;;;;;;;6.25;5.65;;;17.00;99.90;;;;;;4990989;28;20207;-61
2021/06/06 02:07:55;;;;;;;5.70;5.20;;;16.80;99.90;;;;;;4991222;28;20190;-61
2021/06/06 02:10:49;;;;;;;6.07;5.47;;;17.10;99.90;;;;;;4991043;28;20196;-60
2021/06/06 02:13:23;;;;;;;5.80;5.28;;;17.10;99.90;;;;;;4983238;28;20251;-60
2021/06/06 02:15:57;;;;;;;6.32;5.40;;;17.00;99.90;;;;;;4991004;28;20249;-60
2021/06/06 02:18:25;;;;;;;6.15;5.40;;;16.90;99.90;;;;;;4990061;28;20540;-60
2021/06/06 02:20:51;;;;;;;7.15;5.65;;;16.90;99.90;;;;;;4990771;28;20645;-61
2021/06/06 02:23:26;;;;;;;7.53;5.60;;;17.00;99.90;;;;;;4991006;28;20207;-60
2021/06/06 02:26:10;;;;;;;5.60;5.10;;;17.10;99.90;;;;;;4990828;28;20298;-61
2021/06/06 02:29:03;;;;;;;5.40;4.90;;;17.00;99.90;;;;;;4990847;28;20203;-60
2021/06/06 02:31:56;;;;;;;5.63;4.75;;;17.10;99.90;;;;;;4995094;28;20398;-60
2021/06/06 02:34:41;;;;;;;5.38;4.85;;;16.80;99.90;;;;;;4990707;28;20226;-60
2021/06/06 02:37:21;;;;;;;6.22;4.65;;;17.20;99.90;;;;;;4990594;28;20853;-58
2021/06/06 02:39:51;;;;;;;6.15;5.55;;;17.20;99.90;;;;;;4990473;28;20191;-59
2021/06/06 02:42:25;;;;;;;6.43;4.95;;;17.00;99.90;;;;;;4990759;28;20274;-59
2021/06/06 02:44:55;;;;;;;7.10;4.63;;;16.90;99.90;;;;;;4980181;28;20183;-59
2021/06/06 02:47:25;;;;;;;5.63;5.10;;;17.00;99.90;;;;;;4991482;28;20203;-60
2021/06/06 02:49:54;;;;;;;5.90;5.40;;;17.00;99.90;;;;;;4989702;28;20282;-60
2021/06/06 02:52:44;;;;;;;4.97;4.57;;;17.00;99.90;;;;;;4990128;28;20187;-60
2021/06/06 02:55:16;;;;;;;5.60;5.10;;;17.00;99.90;;;;;;4990513;28;20196;-60
2021/06/06 02:57:51;;;;;;;5.13;4.63;;;16.80;99.90;;;;;;4987523;28;20176;-60
2021/06/06 03:00:18;;;;;;;5.00;4.50;;;16.80;99.90;;;;;;4990382;28;20544;-60
2021/06/06 03:02:51;;;;;;;5.85;5.25;;;17.30;99.90;;;;;;4990162;28;20248;-60
2021/06/06 03:05:20;;;;;;;5.82;5.32;;;17.30;99.90;;;;;;4990918;28;20246;-59
2021/06/06 03:07:49;;;;;;;5.35;4.85;;;17.10;99.90;;;;;;4990385;28;20196;-59
2021/06/06 03:10:19;;;;;;;6.85;4.55;;;17.00;99.90;;;;;;4989943;28;20195;-59
2021/06/06 03:12:48;;;;;;;5.47;4.97;;;17.10;99.90;;;;;;4990021;28;20213;-59
2021/06/06 03:15:16;;;;;;;4.97;4.57;;;17.10;99.90;;;;;;4989753;28;20270;-60
2021/06/06 03:17:50;;;;;;;5.50;5.00;;;17.10;99.90;;;;;;4990064;28;20668;-59
2021/06/06 03:20:24;;;;;;;5.25;4.75;;;17.10;99.90;;;;;;4986513;28;20618;-59
2021/06/06 03:22:52;;;;;;;4.90;4.40;;;17.30;99.90;;;;;;5001609;28;20183;-60
2021/06/06 03:25:39;;;;;;;4.60;4.30;;;17.50;99.90;;;;;;4989790;28;20223;-59
2021/06/06 03:28:07;;;;;;;4.70;4.30;;;17.10;99.90;;;;;;4989722;28;20204;-59
2021/06/06 03:30:40;;;;;;;4.50;4.20;;;17.10;99.90;;;;;;4989537;28;20187;-59
2021/06/06 03:33:12;;;;;;;5.15;4.60;;;17.00;99.90;;;;;;4989812;28;20585;-59
2021/06/06 03:35:38;;;;;;;4.43;4.03;;;17.00;99.90;;;;;;4989665;28;20207;-59
2021/06/06 03:38:05;;;;;;;3.80;3.50;;;16.90;99.90;;;;;;4989335;28;20184;-59
2021/06/06 03:40:35;;;;;;;4.68;4.25;;;17.00;99.90;;;;;;4989927;28;20967;-59
2021/06/06 03:43:01;;;;;;;5.85;5.25;;;17.00;99.90;;;;;;4989932;28;20211;-60
2021/06/06 03:45:27;;;;;;;3.97;3.63;;;17.00;99.90;;;;;;4989326;28;20203;-59
2021/06/06 03:47:55;;;;;;;4.77;4.37;;;17.30;99.90;;;;;;4989792;28;20291;-59
2021/06/06 03:50:22;;;;;;;4.97;4.30;;;17.00;99.90;;;;;;4992914;28;20191;-59
2021/06/06 03:52:51;;;;;;;5.15;4.65;;;17.00;99.90;;;;;;4989381;28;20213;-59
2021/06/06 03:55:18;;;;;;;5.50;5.00;;;17.10;99.90;;;;;;4989605;28;20183;-60
2021/06/06 03:57:44;;;;;;;5.30;4.80;;;17.10;99.90;;;;;;4986286;28;20246;-59
2021/06/06 04:00:35;;;;;;;10.60;4.97;;;17.10;99.90;;;;;;4989492;28;20191;-59
2021/06/06 04:03:01;;;;;;;4.97;4.55;;;17.00;99.90;;;;;;4977905;28;20795;-59
2021/06/06 04:05:27;;;;;;;6.40;5.75;;;17.30;99.90;;;;;;4979433;28;20218;-59
2021/06/06 04:07:53;;;;;;;6.03;5.07;;;17.40;99.90;;;;;;4999024;28;20250;-59
2021/06/06 04:10:19;;;;;;;5.45;4.90;;;17.30;99.90;;;;;;4980501;28;20451;-63
2021/06/06 04:12:45;;;;;;;5.50;4.67;;;17.10;99.90;;;;;;4986239;28;20680;-62
2021/06/06 04:15:12;;;;;;;6.47;4.97;;;17.00;99.90;;;;;;4984068;28;20790;-61
2021/06/06 04:17:37;;;;;;;8.65;4.80;;;16.90;99.90;;;;;;4997483;28;20435;-61
2021/06/06 04:20:05;;;;;;;7.47;4.20;;;17.30;99.90;;;;;;4987292;28;20961;-63
2021/06/06 04:22:31;;;;;;;5.90;4.75;;;17.10;99.90;;;;;;4984433;28;20200;-65
2021/06/06 04:24:56;;;;;;;6.20;5.03;;;17.20;99.90;;;;;;4985983;28;20179;-63
2021/06/06 04:27:22;;;;;;;5.90;4.93;;;17.10;99.90;;;;;;4983668;28;20207;-66
2021/06/06 04:29:48;;;;;;;7.17;5.17;;;17.00;99.90;;;;;;4979873;28;20195;-64
2021/06/06 04:32:16;;;;;;;8.80;5.50;;;16.50;99.90;;;;;;4987079;28;20565;-65
2021/06/06 04:34:43;;;;;;;5.32;4.82;;;17.20;99.90;;;;;;4988369;28;20263;-63
2021/06/06 04:37:10;;;;;;;5.90;5.20;;;17.30;99.90;;;;;;4981694;28;20203;-64
2021/06/06 04:39:37;;;;;;;12.00;7.00;;;17.00;99.90;;;;;;4988686;28;20278;-63
2021/06/06 04:42:06;;;;;;;6.50;5.28;;;17.10;99.90;;;;;;4988133;28;20192;-62
2021/06/06 04:44:32;;;;;;;6.30;5.10;;;17.00;99.90;;;;;;4986668;28;20198;-63
2021/06/06 04:46:57;;;;;;;8.10;4.90;;;17.00;99.90;;;;;;4986278;28;20215;-61
2021/06/06 04:49:23;;;;;;;8.30;5.40;;;16.90;99.90;;;;;;4988699;28;20439;-62
2021/06/06 04:51:49;;;;;;;7.87;6.20;;;16.80;99.90;;;;;;4984627;28;20246;-62
2021/06/06 04:54:15;;;;;;;7.65;5.50;;;16.80;99.90;;;;;;4985813;28;20525;-66
2021/06/06 04:56:41;;;;;;;9.70;6.90;;;17.10;99.90;;;;;;4986991;28;20211;-62
2021/06/06 04:59:07;;;;;;;7.95;6.60;;;17.10;99.90;;;;;;4988839;28;20700;-67
2021/06/06 05:01:32;;;;;;;8.60;5.93;;;17.00;99.90;;;;;;4984671;28;20219;-63
2021/06/06 05:03:58;;;;;;;11.90;7.23;;;16.90;99.90;;;;;;4992345;28;20557;-63
2021/06/06 05:06:24;;;;;;;9.93;6.00;;;16.90;99.90;;;;;;4989940;28;20207;-66
2021/06/06 05:08:50;;;;;;;8.30;6.43;;;16.80;99.90;;;;;;4991303;28;20199;-63
2021/06/06 05:11:15;;;;;;;8.50;6.83;;;17.10;99.90;;;;;;4990180;28;20238;-61
2021/06/06 05:13:41;;;;;;;8.10;6.40;;;16.90;99.90;;;;;;4988187;28;20560;-59
2021/06/06 05:16:07;;;;;;;9.03;6.00;;;17.00;99.90;;;;;;4987305;28;20462;-60
2021/06/06 05:18:33;;;;;;;7.67;6.23;;;16.60;99.90;;;;;;4988082;28;20187;-64
2021/06/06 05:20:59;;;;;;;8.83;6.70;;;17.00;99.90;;;;;;4991150;28;20433;-61
2021/06/06 05:23:27;;;;;;;9.05;6.38;;;17.10;99.90;;;;;;4984755;28;20462;-61
2021/06/06 05:25:53;;;;;;;8.18;5.72;;;17.40;99.90;;;;;;4987752;28;20628;-61
2021/06/06 05:28:23;;;;;;;7.95;6.10;;;17.10;99.90;;;;;;4987437;28;20191;-61
2021/06/06 05:30:48;;;;;;;7.57;6.60;;;17.10;99.90;;;;;;4988336;28;20603;-61
2021/06/06 05:33:14;;;;;;;10.13;6.17;;;17.00;99.90;;;;;;4988242;28;20242;-62
2021/06/06 05:35:41;;;;;;;8.82;6.72;;;17.10;99.90;;;;;;4991946;28;20209;-62
2021/06/06 05:38:09;;;;;;;10.27;8.80;;;17.30;99.90;;;;;;4985502;28;20787;-61
2021/06/06 05:40:36;;;;;;;6.85;5.70;;;16.90;99.90;;;;;;5001190;28;20514;-58
2021/06/06 05:43:03;;;;;;;7.97;7.20;;;17.10;99.90;;;;;;4986597;28;20188;-58
2021/06/06 05:45:29;;;;;;;6.97;6.25;;;17.00;99.90;;;;;;4987354;28;20708;-59
2021/06/06 05:47:54;;;;;;;6.70;6.00;;;17.10;99.90;;;;;;4989117;28;20206;-59
2021/06/06 05:50:25;;;;;;;8.07;6.67;;;17.10;99.90;;;;;;4981531;28;20210;-59
2021/06/06 05:52:51;;;;;;;6.43;5.80;;;17.10;99.90;;;;;;4990614;28;20545;-59
2021/06/06 05:55:19;;;;;;;7.10;6.40;;;17.20;99.90;;;;;;4989596;28;20195;-59
2021/06/06 05:57:45;;;;;;;7.47;6.20;;;17.00;99.90;;;;;;4990746;28;20214;-59
2021/06/06 06:00:15;;;;;;;7.83;6.47;;;17.00;99.90;;;;;;4990557;28;20808;-59
2021/06/06 06:02:40;;;;;;;6.95;6.32;;;17.00;99.90;;;;;;4985533;28;20191;-59
2021/06/06 06:05:07;;;;;;;9.87;7.20;;;17.00;99.90;;;;;;4982434;28;20285;-58
2021/06/06 06:07:32;;;;;;;6.18;5.57;;;17.40;99.90;;;;;;4983368;28;20437;-58
2021/06/06 06:09:58;;;;;;;8.07;7.27;;;16.90;99.90;;;;;;4996063;28;20660;-58
2021/06/06 06:12:24;;;;;;;7.45;6.55;;;16.90;99.90;;;;;;4984175;28;20196;-59
2021/06/06 06:14:50;;;;;;;7.70;6.50;;;17.00;99.90;;;;;;4990886;28;20198;-59
2021/06/06 06:17:16;;;;;;;6.73;5.83;;;17.10;99.90;;;;;;4990880;28;20302;-59
2021/06/06 06:19:41;;;;;;;7.73;6.93;;;17.00;99.90;;;;;;4982661;28;20267;-58
2021/06/06 06:22:07;;;;;;;7.80;7.00;;;17.20;99.90;;;;;;4990059;28;20474;-59
2021/06/06 06:24:35;;;;;;;8.13;7.30;;;17.10;99.90;;;;;;4991653;28;20183;-58
2021/06/06 06:27:02;;;;;;;7.20;6.50;;;17.10;99.90;;;;;;4984571;28;20211;-59
2021/06/06 06:29:27;;;;;;;7.97;6.97;;;17.10;99.90;;;;;;5000504;28;20458;-58
2021/06/06 06:31:54;;;;;;;8.00;7.17;;;17.20;99.90;;;;;;4982233;28;20202;-59
2021/06/06 06:34:20;;;;;;;7.15;6.45;;;16.80;99.90;;;;;;4984848;28;20335;-59
2021/06/06 06:36:47;;;;;;;7.30;6.40;;;16.90;99.90;;;;;;4993027;28;20196;-58
2021/06/06 06:39:14;;;;;;;7.57;6.60;;;16.90;99.90;;;;;;4987518;28;20442;-59
2021/06/06 06:41:39;;;;;;;10.07;7.57;;;17.00;99.90;;;;;;4988120;28;20198;-59
2021/06/06 06:44:05;;;;;;;10.23;6.97;;;17.10;99.90;;;;;;4980916;28;20966;-59
2021/06/06 06:46:32;;;;;;;7.80;6.90;;;17.30;99.90;;;;;;4982231;28;20594;-60
2021/06/06 06:48:57;;;;;;;7.82;6.63;;;17.30;99.90;;;;;;4982889;28;20203;-57
2021/06/06 06:51:25;;;;;;;7.93;7.00;;;17.10;99.90;;;;;;4981319;28;20198;-57
2021/06/06 06:53:54;;;;;;;8.13;7.10;;;17.10;99.90;;;;;;4981118;28;20226;-59
2021/06/06 06:56:24;;;;;;;8.15;7.00;;;17.20;99.90;;;;;;4980756;28;20541;-58
2021/06/06 06:58:50;;;;;;;6.43;5.50;;;16.90;99.90;;;;;;4981678;28;20200;-58
2021/06/06 07:01:17;;;;;;;8.10;6.90;;;17.10;99.90;;;;;;4989704;28;20193;-59
2021/06/06 07:03:42;;;;;;;7.10;6.40;;;17.40;99.90;;;;;;4981052;28;20318;-58
2021/06/06 07:06:09;;;;;;;7.00;6.30;;;17.20;99.90;;;;;;4981343;28;20293;-59
2021/06/06 07:08:37;;;;;;;8.60;6.75;;;16.80;99.90;;;;;;4985606;28;20191;-59
2021/06/06 07:11:04;;;;;;;7.55;6.85;;;17.20;99.90;;;;;;4985970;28;20194;-59
2021/06/06 07:13:30;;;;;;;8.05;7.25;;;17.30;99.90;;;;;;4986114;28;20211;-63
2021/06/06 07:15:59;;;;;;;7.20;6.43;;;17.20;99.90;;;;;;4986378;28;20203;-61
2021/06/06 07:18:25;;;;;;;7.82;7.10;;;17.40;99.90;;;;;;4986874;28;20552;-61
2021/06/06 07:20:56;;;;;;;7.50;6.80;;;17.30;99.90;;;;;;4992155;28;20198;-62
2021/06/06 07:23:23;;;;;;;7.68;6.97;;;17.40;99.90;;;;;;4986561;28;20195;-62
2021/06/06 07:25:48;;;;;;;7.55;6.85;;;17.40;99.90;;;;;;4985422;28;20203;-61
2021/06/06 07:28:18;;;;;;;7.60;6.90;;;17.20;99.90;;;;;;4998268;28;20194;-61
2021/06/06 07:30:49;;;;;;;7.10;6.40;;;17.00;99.90;;;;;;4985223;28;20222;-63
2021/06/06 07:33:28;;;;;;;8.52;7.72;;;17.20;99.90;;;;;;4980305;28;20215;-63
2021/06/06 07:35:55;;;;;;;11.60;10.50;;;17.40;99.90;;;;;;4985345;28;20235;-61
2021/06/06 07:38:23;;;;;;;7.68;6.78;;;17.40;99.90;;;;;;4983473;28;20183;-62
2021/06/06 07:40:50;;;;;;;7.57;6.78;;;17.50;99.90;;;;;;4978833;28;20180;-64
2021/06/06 07:43:17;;;;;;;7.07;6.20;;;17.30;99.90;;;;;;4984646;28;21150;-62
2021/06/06 07:45:43;;;;;;;7.60;6.90;;;17.40;99.90;;;;;;5001501;28;20676;-63
2021/06/06 07:48:09;;;;;;;10.13;7.07;;;17.50;99.90;;;;;;4985651;28;20205;-64
2021/06/06 07:50:38;;;;;;;9.20;6.97;;;17.50;99.90;;;;;;4985099;28;20653;-62
2021/06/06 07:53:04;;;;;;;8.80;6.88;;;17.50;99.90;;;;;;4986607;28;20507;-64
2021/06/06 07:55:30;;;;;;;9.45;7.88;;;17.50;99.90;;;;;;4981781;28;20211;-65
2021/06/06 07:57:56;;;;;;;9.13;7.07;;;17.50;99.90;;;;;;4985722;28;20563;-64
2021/06/06 08:00:29;;;;;;;8.90;8.00;;;17.40;99.90;;;;;;4982584;28;20439;-63
2021/06/06 08:02:55;;;;;;;8.88;7.93;;;17.40;99.90;;;;;;4984948;28;20185;-64
2021/06/06 08:05:21;;;;;;;9.50;7.63;;;17.30;99.90;;;;;;4984992;28;20196;-60
2021/06/06 08:07:47;;;;;;;8.60;7.22;;;17.40;99.90;;;;;;4997482;28;20187;-63
2021/06/06 08:10:15;;;;;;;10.03;7.93;;;17.40;99.90;;;;;;4983842;28;20195;-64
2021/06/06 08:12:41;;;;;;;9.30;7.55;;;17.50;99.90;;;;;;5000988;28;20222;-61
2021/06/06 08:15:08;;;;;;;14.47;7.73;;;17.40;99.90;;;;;;4986632;28;20621;-62
2021/06/06 08:17:34;;;;;;;9.73;7.80;;;17.30;99.90;;;;;;4982538;28;20183;-64
2021/06/06 08:20:00;;;;;;;9.27;8.37;;;17.40;99.90;;;;;;4989104;28;20198;-62
2021/06/06 08:22:26;;;;;;;9.07;8.17;;;17.40;99.90;;;;;;4988620;28;20438;-62
2021/06/06 08:24:51;;;;;;;10.57;7.50;;;17.10;99.90;;;;;;4986980;28;20446;-62
2021/06/06 08:27:17;;;;;;;8.90;7.33;;;17.60;99.90;;;;;;4990725;28;20468;-66
2021/06/06 08:29:43;;;;;;;8.97;7.47;;;17.40;99.90;;;;;;4986344;28;20222;-64
2021/06/06 08:32:10;;;;;;;10.30;7.53;;;17.40;99.90;;;;;;4988414;28;20541;-64
2021/06/06 08:34:36;;;;;;;11.00;8.88;;;17.30;99.90;;;;;;4989551;28;21021;-60
2021/06/06 08:37:03;;;;;;;9.73;7.30;;;17.20;99.90;;;;;;4985590;28;20656;-63
2021/06/06 08:39:31;;;;;;;11.55;8.75;;;17.30;99.90;;;;;;4985843;28;20536;-62
2021/06/06 08:42:21;;;;;;;10.32;7.35;;;17.30;99.90;;;;;;4989824;28;20208;-63
2021/06/06 08:45:06;;;;;;;9.95;8.23;;;17.30;99.90;;;;;;4986724;28;20195;-59
2021/06/06 08:47:34;;;;;;;13.25;9.15;;;17.50;99.90;;;;;;4992136;28;20684;-59
2021/06/06 08:50:11;;;;;;;9.05;7.75;;;16.90;99.90;;;;;;4989298;28;20199;-63
2021/06/06 08:52:57;;;;;;;9.85;8.10;;;17.10;99.90;;;;;;4982636;28;20184;-64
2021/06/06 08:55:28;;;;;;;9.15;7.63;;;17.10;99.90;;;;;;4987501;28;20203;-61
2021/06/06 08:58:21;;;;;;;12.80;8.77;;;17.20;99.90;;;;;;4988076;28;20379;-63
2021/06/06 09:00:52;;;;;;;11.40;9.07;;;17.30;99.90;;;;;;5006554;28;20180;-61
2021/06/06 09:03:25;;;;;;;11.40;8.45;;;17.30;99.90;;;;;;4985633;28;20286;-62
2021/06/06 09:06:03;;;;;;;13.50;10.15;;;17.30;99.90;;;;;;4986741;28;20203;-62
2021/06/06 09:08:33;;;;;;;14.25;9.73;;;17.40;99.90;;;;;;4986964;28;20191;-58
2021/06/06 09:11:04;;;;;;;9.73;8.45;;;17.50;99.90;;;;;;4987989;28;20275;-58
2021/06/06 09:13:31;;;;;;;10.57;8.38;;;17.40;99.90;;;;;;4984315;28;20207;-57
2021/06/06 09:16:19;;;;;;;7.88;7.07;;;17.40;99.90;;;;;;4988821;28;20195;-58
2021/06/06 09:18:47;;;;;;;9.15;7.45;;;17.40;99.90;;;;;;4988892;28;20218;-58
2021/06/06 09:21:16;;;;;;;8.00;7.15;;;17.40;99.90;;;;;;5001192;28;20183;-58
2021/06/06 09:23:43;;;;;;;12.23;8.60;;;17.50;99.90;;;;;;4983640;28;20223;-58
2021/06/06 09:26:17;;;;;;;11.40;8.98;;;17.40;99.90;;;;;;4986880;28;20243;-58
2021/06/06 09:28:46;;;;;;;10.82;9.50;;;17.40;99.90;;;;;;4988693;28;20191;-58
2021/06/06 09:31:18;;;;;;;11.98;9.77;;;17.10;99.90;;;;;;4988313;28;20191;-58
2021/06/06 09:34:00;;;;;;;11.68;9.82;;;17.40;99.90;;;;;;4983634;28;20214;-58
2021/06/06 09:36:33;;;;;;;11.25;9.32;;;17.40;99.90;;;;;;4989506;28;20214;-58
2021/06/06 09:39:02;;;;;;;13.80;9.98;;;17.40;99.90;;;;;;4985787;28;20184;-57
2021/06/06 09:41:34;;;;;;;10.65;9.32;;;17.30;99.90;;;;;;4984269;28;20222;-57
2021/06/06 09:44:05;;;;;;;13.80;10.35;;;17.00;99.90;;;;;;4986041;28;20253;-57
2021/06/06 09:46:42;;;;;;;10.75;9.20;;;17.30;99.90;;;;;;4983016;28;20277;-58
2021/06/06 09:49:30;;;;;;;12.20;10.90;;;17.30;99.90;;;;;;4989435;28;20191;-58
2021/06/06 09:52:17;;;;;;;13.63;11.18;;;17.30;99.90;;;;;;4988758;28;20184;-57
2021/06/06 09:54:46;;;;;;;10.52;9.40;;;17.40;99.90;;;;;;4978665;28;20214;-58
2021/06/06 09:57:31;;;;;;;14.10;11.90;;;17.60;99.90;;;;;;4982435;28;20235;-58
2021/06/06 10:00:11;;;;;;;15.00;12.00;;;17.40;99.90;;;;;;4988299;28;20257;-59
2021/06/06 10:02:40;;;;;;;14.80;13.13;;;17.40;99.90;;;;;;4987669;28;20653;-58
2021/06/06 10:05:16;;;;;;;15.07;13.43;;;17.50;99.90;;;;;;4984528;28;20692;-58
2021/06/06 10:07:53;;;;;;;15.02;13.43;;;17.60;99.90;;;;;;5001291;28;20845;-58
2021/06/06 10:10:46;;;;;;;17.58;14.10;;;17.50;99.90;;;;;;4986559;28;20196;-58
2021/06/06 10:13:17;;;;;;;17.83;15.68;;;17.60;99.90;;;;;;4983607;28;20205;-58
2021/06/06 10:15:44;;;;;;;17.48;14.45;;;17.60;99.90;;;;;;4985255;28;20930;-58
2021/06/06 10:18:33;;;;;;;16.55;14.05;;;17.80;99.90;;;;;;4988038;28;20192;-58
2021/06/06 10:21:10;;;;;;;17.15;14.80;;;17.80;99.90;;;;;;4983930;28;20189;-58
2021/06/06 10:24:05;;;;;;;19.17;13.80;;;17.80;99.90;;;;;;4986479;28;20269;-58
2021/06/06 10:26:36;;;;;;;20.55;16.20;;;17.90;99.90;;;;;;4980222;28;20230;-59
2021/06/06 10:29:21;;;;;;;19.80;17.27;;;17.90;99.90;;;;;;4988985;28;20190;-58
2021/06/06 10:31:49;;;;;;;25.25;16.92;;;18.00;99.90;;;;;;4989974;28;20226;-58
2021/06/06 10:34:42;;;;;;;19.83;16.27;;;17.90;99.90;;;;;;4987112;28;20231;-58
2021/06/06 10:37:10;;;;;;;21.02;16.70;;;17.80;99.90;;;;;;4990115;28;20602;-59
2021/06/06 10:39:43;;;;;;;22.27;18.27;;;17.80;99.90;;;;;;4988053;28;20545;-58
2021/06/06 10:42:39;;;;;;;24.92;19.75;;;17.80;99.90;;;;;;4986334;28;20216;-58
2021/06/06 10:45:08;;;;;;;24.88;19.65;;;17.70;99.90;;;;;;4983531;28;20194;-58
2021/06/06 10:48:01;;;;;;;23.77;19.08;;;17.70;99.90;;;;;;4989950;28;20245;-58
2021/06/06 10:50:40;;;;;;;21.08;18.17;;;17.80;99.90;;;;;;4987947;28;20201;-58
2021/06/06 10:53:29;;;;;;;23.08;19.80;;;17.60;99.90;;;;;;4989430;28;20223;-59
2021/06/06 10:56:07;;;;;;;22.88;18.90;;;17.70;99.90;;;;;;4988386;28;20685;-58
2021/06/06 10:58:48;;;;;;;24.30;19.25;;;17.50;99.90;;;;;;4989590;28;20325;-58
2021/06/06 11:01:19;;;;;;;22.10;18.90;;;17.60;99.90;;;;;;4987835;28;20499;-58
2021/06/06 11:03:51;;;;;;;22.58;19.80;;;17.70;99.90;;;;;;4978522;28;20223;-58
2021/06/06 11:06:37;;;;;;;23.98;20.52;;;17.90;99.90;;;;;;4989133;28;20294;-58
2021/06/06 11:09:06;;;;;;;26.92;23.15;;;17.90;99.90;;;;;;4988832;28;20195;-58
2021/06/06 11:11:36;;;;;;;31.00;21.60;;;17.90;99.90;;;;;;4988855;28;20192;-59
2021/06/06 11:14:08;;;;;;;31.85;24.58;;;18.00;99.90;;;;;;4979370;28;20704;-59
2021/06/06 11:16:42;;;;;;;30.10;23.50;;;18.10;99.90;;;;;;4976179;28;20207;-58
2021/06/06 11:19:33;;;;;;;32.28;24.33;;;18.00;99.90;;;;;;4988077;28;20679;-58
2021/06/06 11:22:02;;;;;;;32.05;25.15;;;17.80;99.90;;;;;;4975170;28;20614;-58
2021/06/06 11:24:39;;;;;;;35.00;25.58;;;17.90;99.90;;;;;;4994736;28;20286;-59
2021/06/06 11:27:17;;;;;;;35.47;26.35;;;17.80;99.90;;;;;;4985720;28;20233;-58
2021/06/06 11:30:27;;;;;;;32.90;26.38;;;17.70;99.90;;;;;;4987567;28;20214;-58
2021/06/06 11:33:09;;;;;;;38.53;26.40;;;17.60;99.90;;;;;;4985396;28;20206;-58
2021/06/06 11:35:34;;;;;;;37.42;28.73;;;17.60;99.90;;;;;;4988848;28;20564;-59
2021/06/06 11:38:13;;;;;;;40.40;28.40;;;17.50;99.90;;;;;;4984299;28;20187;-58
2021/06/06 11:40:49;;;;;;;41.60;29.80;;;17.70;99.90;;;;;;4980843;28;20186;-58
2021/06/06 11:43:52;;;;;;;43.78;31.02;;;17.80;99.90;;;;;;4981878;28;20218;-58
2021/06/06 11:46:33;;;;;;;44.03;29.90;;;17.70;99.90;;;;;;4965554;28;20660;-59
2021/06/06 11:49:05;;;;;;;45.22;31.33;;;17.80;99.90;;;;;;4985458;28;20283;-58
2021/06/06 11:51:39;;;;;;;43.05;32.03;;;17.70;99.90;;;;;;4986816;28;20198;-59
2021/06/06 11:54:30;;;;;;;44.63;31.30;;;17.70;99.90;;;;;;4988375;28;20207;-59
2021/06/06 11:57:00;;;;;;;44.72;30.73;;;17.60;99.90;;;;;;4983791;28;20208;-59
2021/06/06 11:59:44;;;;;;;48.13;32.88;;;17.70;99.90;;;;;;4989420;28;20543;-58
2021/06/06 12:02:17;;;;;;;44.97;32.35;;;17.60;99.90;;;;;;4988159;28;20694;-59
2021/06/06 12:04:42;;;;;;;45.33;32.13;;;17.60;99.90;;;;;;4983071;28;20525;-58
2021/06/06 12:07:22;;;;;;;40.93;31.57;;;17.50;99.90;;;;;;4988933;28;20222;-58
2021/06/06 12:09:49;;;;;;;39.80;28.92;;;17.50;99.90;;;;;;4986503;28;20526;-57
2021/06/06 12:12:22;;;;;;;34.45;27.20;;;17.70;99.90;;;;;;4986297;28;20217;-57
2021/06/06 12:15:18;;;;;;;34.50;26.85;;;17.80;99.90;;;;;;4988383;28;20325;-57
2021/06/06 12:17:45;;;;;;;36.22;28.45;;;17.90;99.90;;;;;;4989799;28;20240;-57
2021/06/06 12:20:16;;;;;;;35.33;28.75;;;17.80;99.90;;;;;;4992175;28;20214;-59
2021/06/06 12:22:42;;;;;;;34.22;28.58;;;17.90;99.90;;;;;;4992201;28;20187;-60
2021/06/06 12:25:14;;;;;;;31.50;25.45;;;18.00;99.90;;;;;;4991079;28;20190;-57
2021/06/06 12:27:53;;;;;;;28.55;24.77;;;18.00;99.90;;;;;;4987781;28;20191;-57
2021/06/06 12:30:24;;;;;;;32.15;25.00;;;18.10;99.90;;;;;;4985189;28;20186;-58
2021/06/06 12:32:58;;;;;;;30.65;24.67;;;18.20;99.90;;;;;;4991915;28;20214;-59
2021/06/06 12:35:31;;;;;;;28.60;23.75;;;18.40;99.90;;;;;;4986146;28;20329;-59
2021/06/06 12:38:03;;;;;;;32.60;25.00;;;18.20;99.90;;;;;;4991344;28;20179;-59
2021/06/06 12:40:34;;;;;;;29.85;22.02;;;18.20;99.90;;;;;;4990877;28;20185;-59
2021/06/06 12:43:03;;;;;;;30.00;23.10;;;18.30;99.90;;;;;;4994213;28;20768;-59
2021/06/06 12:45:31;;;;;;;26.48;21.77;;;18.30;99.90;;;;;;4990847;28;20220;-58
2021/06/06 12:48:24;;;;;;;27.40;22.42;;;18.30;99.90;;;;;;4991995;28;20215;-59
2021/06/06 12:50:51;;;;;;;26.90;22.13;;;18.30;99.90;;;;;;4990001;28;20184;-60
2021/06/06 12:53:34;;;;;;;28.02;23.65;;;18.30;99.90;;;;;;4991793;28;20211;-60
2021/06/06 12:56:11;;;;;;;27.73;23.60;;;18.40;99.90;;;;;;4990103;28;20217;-58
2021/06/06 12:58:38;;;;;;;29.52;22.90;;;18.50;99.90;;;;;;4991494;28;20219;-59
2021/06/06 13:01:26;;;;;;;30.50;24.83;;;18.40;99.90;;;;;;4992289;28;20182;-59
2021/06/06 13:03:53;;;;;;;28.10;23.30;;;18.30;99.90;;;;;;4991313;28;20218;-58